Time,TemperatureF,DewpointF,PressureIn,WindDirection,WindDirectionDegrees,WindSpeedMPH,WindSpeedGustMPH,Humidity,HourlyPrecipIn,Conditions,Clouds,dailyrainin,SolarRadiationWatts/m^2,SoftwareType,DateUTC
2013-04-03 00:01:00,7.0,2.0,-100.00,WSW,254,2.0,4.0,79,0.00,,,0.00,0.000000,,2013-04-03 05:01:00,
2013-04-03 00:32:00,7.0,2.0,-100.00,WSW,254,2.0,4.0,79,0.00,,,0.00,0.000000,,2013-04-03 05:32:00,
2013-04-03 00:42:00,7.0,2.0,-100.00,WSW,254,2.0,4.0,79,0.00,,,0.00,0.000000,,2013-04-03 05:42:00,
2013-04-03 00:52:00,7.0,2.0,-100.00,WSW,254,2.0,4.0,79,0.00,,,0.00,0.000000,,2013-04-03 05:52:00,
2013-04-03 01:01:00,4.0,-1.0,-100.00,West,273,0.0,2.0,78,0.00,,,0.00,0.000000,,2013-04-03 06:01:00,
2013-04-03 01:22:00,4.0,-1.0,-100.00,West,273,0.0,2.0,78,0.00,,,0.00,0.000000,,2013-04-03 06:22:00,
2013-04-03 01:32:00,4.0,-1.0,-100.00,West,273,0.0,2.0,78,0.00,,,0.00,0.000000,,2013-04-03 06:32:00,
2013-04-03 01:42:00,4.0,-1.0,-100.00,West,273,0.0,2.0,78,0.00,,,0.00,0.000000,,2013-04-03 06:42:00,
2013-04-03 01:52:00,4.0,-1.0,-100.00,West,273,0.0,2.0,78,0.00,,,0.00,0.000000,,2013-04-03 06:52:00,
2013-04-03 02:01:00,1.0,-4.0,-100.00,West,277,0.0,2.0,79,0.00,,,0.00,0.000000,,2013-04-03 07:01:00,
2013-04-03 02:23:00,1.0,-4.0,-100.00,West,277,0.0,2.0,79,0.00,,,0.00,0.000000,,2013-04-03 07:23:00,
2013-04-03 02:33:00,1.0,-4.0,-100.00,West,277,0.0,2.0,79,0.00,,,0.00,0.000000,,2013-04-03 07:33:00,
2013-04-03 02:42:00,1.0,-4.0,-100.00,West,277,0.0,2.0,79,0.00,,,0.00,0.000000,,2013-04-03 07:42:00,
2013-04-03 02:53:00,1.0,-4.0,-100.00,West,277,0.0,2.0,79,0.00,,,0.00,0.000000,,2013-04-03 07:53:00,
2013-04-03 03:01:00,-1.0,-6.0,-100.00,West,269,1.0,2.0,79,0.00,,,0.00,0.000000,,2013-04-03 08:01:00,
2013-04-03 03:33:00,-1.0,-6.0,-100.00,West,269,1.0,2.0,79,0.00,,,0.00,0.000000,,2013-04-03 08:33:00,
2013-04-03 03:43:00,-1.0,-6.0,-100.00,West,269,1.0,2.0,79,0.00,,,0.00,0.000000,,2013-04-03 08:43:00,
2013-04-03 03:52:00,-1.0,-6.0,-100.00,West,269,1.0,2.0,79,0.00,,,0.00,0.000000,,2013-04-03 08:52:00,
2013-04-03 04:01:00,-2.0,-7.0,-100.00,WSW,257,0.0,2.0,77,0.00,,,0.00,0.000000,,2013-04-03 09:01:00,
2013-04-03 04:33:00,-2.0,-7.0,-100.00,WSW,257,0.0,2.0,77,0.00,,,0.00,0.000000,,2013-04-03 09:33:00,
2013-04-03 04:43:00,-2.0,-7.0,-100.00,WSW,257,0.0,2.0,77,0.00,,,0.00,0.000000,,2013-04-03 09:43:00,
2013-04-03 04:53:00,-2.0,-7.0,-100.00,WSW,257,0.0,2.0,77,0.00,,,0.00,0.000000,,2013-04-03 09:53:00,
2013-04-03 05:01:00,-3.0,-9.0,-100.00,WSW,250,1.0,2.0,75,0.00,,,0.00,0.000000,,2013-04-03 10:01:00,
2013-04-03 05:22:00,-3.0,-9.0,-100.00,WSW,250,1.0,2.0,75,0.00,,,0.00,0.000000,,2013-04-03 10:22:00,
2013-04-03 05:33:00,-3.0,-9.0,-100.00,WSW,250,1.0,2.0,75,0.00,,,0.00,0.000000,,2013-04-03 10:33:00,
2013-04-03 05:43:00,-3.0,-9.0,-100.00,WSW,250,1.0,2.0,75,0.00,,,0.00,0.000000,,2013-04-03 10:43:00,
2013-04-03 05:53:00,-3.0,-9.0,-100.00,WSW,250,1.0,2.0,75,0.00,,,0.00,0.000000,,2013-04-03 10:53:00,
2013-04-03 06:01:00,-5.0,-11.0,-100.00,WSW,250,0.0,2.0,75,0.00,,,0.00,0.000000,,2013-04-03 11:01:00,
2013-04-03 06:23:00,-5.0,-11.0,-100.00,WSW,250,0.0,2.0,75,0.00,,,0.00,0.000000,,2013-04-03 11:23:00,
2013-04-03 06:33:00,-5.0,-11.0,-100.00,WSW,250,0.0,2.0,75,0.00,,,0.00,0.000000,,2013-04-03 11:33:00,
2013-04-03 06:42:00,-5.0,-11.0,-100.00,WSW,250,0.0,2.0,75,0.00,,,0.00,0.000000,,2013-04-03 11:42:00,
2013-04-03 06:53:00,-5.0,-11.0,-100.00,WSW,250,0.0,2.0,75,0.00,,,0.00,0.000000,,2013-04-03 11:53:00,
2013-04-03 07:01:00,-5.0,-11.0,-100.00,WSW,247,0.0,0.0,74,0.00,,,0.00,7.000000,,2013-04-03 12:01:00,
2013-04-03 07:22:00,-5.0,-11.0,-100.00,WSW,247,0.0,0.0,74,0.00,,,0.00,7.000000,,2013-04-03 12:22:00,
2013-04-03 07:33:00,-5.0,-11.0,-100.00,WSW,247,0.0,0.0,74,0.00,,,0.00,7.000000,,2013-04-03 12:33:00,
2013-04-03 07:42:00,-5.0,-11.0,-100.00,WSW,247,0.0,0.0,74,0.00,,,0.00,7.000000,,2013-04-03 12:42:00,
2013-04-03 07:52:00,-5.0,-11.0,-100.00,WSW,247,0.0,0.0,74,0.00,,,0.00,7.000000,,2013-04-03 12:52:00,
2013-04-03 08:01:00,9.0,1.0,-100.00,WSW,254,0.0,0.0,68,0.00,,,0.00,131.000000,,2013-04-03 13:01:00,
2013-04-03 08:32:00,9.0,1.0,-100.00,WSW,254,0.0,0.0,68,0.00,,,0.00,131.000000,,2013-04-03 13:32:00,
2013-04-03 08:42:00,9.0,1.0,-100.00,WSW,254,0.0,0.0,68,0.00,,,0.00,131.000000,,2013-04-03 13:42:00,
2013-04-03 08:52:00,9.0,1.0,-100.00,WSW,254,0.0,0.0,68,0.00,,,0.00,131.000000,,2013-04-03 13:52:00,
2013-04-03 09:01:00,27.0,8.0,-100.00,NNW,339,1.0,2.0,44,0.00,,,0.00,330.000000,,2013-04-03 14:01:00,
2013-04-03 09:32:00,27.0,8.0,-100.00,NNW,339,1.0,2.0,44,0.00,,,0.00,330.000000,,2013-04-03 14:32:00,
2013-04-03 09:43:00,27.0,8.0,-100.00,NNW,339,1.0,2.0,44,0.00,,,0.00,330.000000,,2013-04-03 14:43:00,
2013-04-03 09:52:00,27.0,8.0,-100.00,NNW,339,1.0,2.0,44,0.00,,,0.00,330.000000,,2013-04-03 14:52:00,
2013-04-03 10:01:00,31.0,5.0,-100.00,SSW,200,6.0,10.0,33,0.00,,,0.00,536.000000,,2013-04-03 15:01:00,
2013-04-03 10:33:00,31.0,5.0,-100.00,SSW,200,6.0,10.0,33,0.00,,,0.00,536.000000,,2013-04-03 15:33:00,
2013-04-03 10:43:00,31.0,5.0,-100.00,SSW,200,6.0,10.0,33,0.00,,,0.00,536.000000,,2013-04-03 15:43:00,
2013-04-03 10:53:00,31.0,5.0,-100.00,SSW,200,6.0,10.0,33,0.00,,,0.00,536.000000,,2013-04-03 15:53:00,
2013-04-03 11:01:00,33.0,3.0,-100.00,WSW,249,7.0,14.0,27,0.00,,,0.00,704.000000,,2013-04-03 16:01:00,
2013-04-03 11:33:00,33.0,3.0,-100.00,WSW,249,7.0,14.0,27,0.00,,,0.00,704.000000,,2013-04-03 16:33:00,
2013-04-03 11:44:00,33.0,3.0,-100.00,WSW,249,7.0,14.0,27,0.00,,,0.00,704.000000,,2013-04-03 16:44:00,
2013-04-03 11:53:00,33.0,3.0,-100.00,WSW,249,7.0,14.0,27,0.00,,,0.00,704.000000,,2013-04-03 16:53:00,
2013-04-03 12:01:00,37.0,4.0,-100.00,SW,219,6.0,15.0,24,0.00,,,0.00,829.000000,,2013-04-03 17:01:00,
2013-04-03 12:34:00,37.0,4.0,-100.00,SW,219,6.0,15.0,24,0.00,,,0.00,829.000000,,2013-04-03 17:34:00,
2013-04-03 12:46:00,37.0,4.0,-100.00,SW,219,6.0,15.0,24,0.00,,,0.00,829.000000,,2013-04-03 17:46:00,
2013-04-03 12:54:00,37.0,4.0,-100.00,SW,219,6.0,15.0,24,0.00,,,0.00,829.000000,,2013-04-03 17:54:00,
2013-04-03 13:01:00,40.0,3.0,-100.00,SW,227,7.0,19.0,21,0.00,,,0.00,898.000000,,2013-04-03 18:01:00,
2013-04-03 13:35:00,40.0,3.0,-100.00,SW,227,7.0,19.0,21,0.00,,,0.00,898.000000,,2013-04-03 18:35:00,
2013-04-03 13:43:00,40.0,3.0,-100.00,SW,227,7.0,19.0,21,0.00,,,0.00,898.000000,,2013-04-03 18:43:00,
2013-04-03 13:52:00,40.0,3.0,-100.00,SW,227,7.0,19.0,21,0.00,,,0.00,898.000000,,2013-04-03 18:52:00,
2013-04-03 14:01:00,40.0,0.0,-100.00,WSW,239,9.0,17.0,18,0.00,,,0.00,872.000000,,2013-04-03 19:01:00,
2013-04-03 14:32:00,40.0,0.0,-100.00,WSW,239,9.0,17.0,18,0.00,,,0.00,872.000000,,2013-04-03 19:32:00,
2013-04-03 14:42:00,40.0,0.0,-100.00,WSW,239,9.0,17.0,18,0.00,,,0.00,872.000000,,2013-04-03 19:42:00,
2013-04-03 14:52:00,40.0,0.0,-100.00,WSW,239,9.0,17.0,18,0.00,,,0.00,872.000000,,2013-04-03 19:52:00,
2013-04-03 15:01:00,43.0,1.0,-100.00,SSW,213,7.0,15.0,17,0.00,,,0.00,839.000000,,2013-04-03 20:01:00,
2013-04-03 15:33:00,43.0,1.0,-100.00,SSW,213,7.0,15.0,17,0.00,,,0.00,839.000000,,2013-04-03 20:33:00,
2013-04-03 15:42:00,43.0,1.0,-100.00,SSW,213,7.0,15.0,17,0.00,,,0.00,839.000000,,2013-04-03 20:42:00,
2013-04-03 15:53:00,43.0,1.0,-100.00,SSW,213,7.0,15.0,17,0.00,,,0.00,839.000000,,2013-04-03 20:53:00,
2013-04-03 16:01:00,44.0,2.0,-100.00,SW,226,8.0,16.0,17,0.00,,,-99.99,680.000000,,2013-04-03 21:01:00,
2013-04-03 16:33:00,44.0,2.0,-100.00,SW,226,8.0,16.0,17,0.00,,,-99.99,680.000000,,2013-04-03 21:33:00,
2013-04-03 16:42:00,44.0,2.0,-100.00,SW,226,8.0,16.0,17,0.00,,,-99.99,680.000000,,2013-04-03 21:42:00,
2013-04-03 16:52:00,44.0,2.0,-100.00,SW,226,8.0,16.0,17,0.00,,,-99.99,680.000000,,2013-04-03 21:52:00,
2013-04-03 17:01:00,44.0,3.0,-100.00,SW,222,9.0,19.0,18,0.00,,,0.00,554.000000,,2013-04-03 22:01:00,
2013-04-03 17:33:00,44.0,3.0,-100.00,SW,222,9.0,19.0,18,0.00,,,0.00,554.000000,,2013-04-03 22:33:00,
2013-04-03 17:42:00,44.0,3.0,-100.00,SW,222,9.0,19.0,18,0.00,,,0.00,554.000000,,2013-04-03 22:42:00,
2013-04-03 17:52:00,44.0,3.0,-100.00,SW,222,9.0,19.0,18,0.00,,,0.00,554.000000,,2013-04-03 22:52:00,
2013-04-03 18:01:00,42.0,2.0,-100.00,SW,230,11.0,21.0,18,0.00,,,0.00,342.000000,,2013-04-03 23:01:00,
2013-04-03 18:33:00,42.0,2.0,-100.00,SW,230,11.0,21.0,18,0.00,,,0.00,342.000000,,2013-04-03 23:33:00,
2013-04-03 18:43:00,42.0,2.0,-100.00,SW,230,11.0,21.0,18,0.00,,,0.00,342.000000,,2013-04-03 23:43:00,
2013-04-03 18:54:00,42.0,2.0,-100.00,SW,230,11.0,21.0,18,0.00,,,0.00,342.000000,,2013-04-03 23:54:00,
2013-04-03 19:01:00,39.0,6.0,-100.00,SW,220,10.0,21.0,25,0.00,,,0.00,131.000000,,2013-04-04 00:01:00,
2013-04-03 19:32:00,39.0,6.0,-100.00,SW,220,10.0,21.0,25,0.00,,,0.00,131.000000,,2013-04-04 00:32:00,
2013-04-03 19:43:00,39.0,6.0,-100.00,SW,220,10.0,21.0,25,0.00,,,0.00,131.000000,,2013-04-04 00:43:00,
2013-04-03 19:52:00,39.0,6.0,-100.00,SW,220,10.0,21.0,25,0.00,,,0.00,131.000000,,2013-04-04 00:52:00,
2013-04-03 20:01:00,35.0,6.0,-100.00,SW,224,8.0,17.0,29,0.00,,,0.00,12.000000,,2013-04-04 01:01:00,
2013-04-03 20:32:00,35.0,6.0,-100.00,SW,224,8.0,17.0,29,0.00,,,0.00,12.000000,,2013-04-04 01:32:00,
2013-04-03 20:43:00,35.0,6.0,-100.00,SW,224,8.0,17.0,29,0.00,,,0.00,12.000000,,2013-04-04 01:43:00,
2013-04-03 20:52:00,35.0,6.0,-100.00,SW,224,8.0,17.0,29,0.00,,,0.00,12.000000,,2013-04-04 01:52:00,
2013-04-03 21:01:00,34.0,8.0,-100.00,SW,228,8.0,18.0,33,0.00,,,0.00,0.000000,,2013-04-04 02:01:00,
2013-04-03 21:22:00,34.0,8.0,-100.00,SW,228,8.0,18.0,33,0.00,,,0.00,0.000000,,2013-04-04 02:22:00,
2013-04-03 21:32:00,34.0,8.0,-100.00,SW,228,8.0,18.0,33,0.00,,,0.00,0.000000,,2013-04-04 02:32:00,
2013-04-03 21:42:00,34.0,8.0,-100.00,SW,228,8.0,18.0,33,0.00,,,0.00,0.000000,,2013-04-04 02:42:00,
2013-04-03 21:52:00,34.0,8.0,-100.00,SW,228,8.0,18.0,33,0.00,,,0.00,0.000000,,2013-04-04 02:52:00,
2013-04-03 22:01:00,34.0,11.0,-100.00,SW,221,10.0,22.0,37,0.00,,,0.00,0.000000,,2013-04-04 03:01:00,
2013-04-03 22:23:00,34.0,11.0,-100.00,SW,221,10.0,22.0,37,0.00,,,0.00,0.000000,,2013-04-04 03:23:00,
2013-04-03 22:34:00,34.0,11.0,-100.00,SW,221,10.0,22.0,37,0.00,,,0.00,0.000000,,2013-04-04 03:34:00,
2013-04-03 22:45:00,34.0,11.0,-100.00,SW,221,10.0,22.0,37,0.00,,,0.00,0.000000,,2013-04-04 03:45:00,
2013-04-03 22:53:00,34.0,11.0,-100.00,SW,221,10.0,22.0,37,0.00,,,0.00,0.000000,,2013-04-04 03:53:00,
2013-04-03 23:01:00,34.0,12.0,-100.00,SW,231,12.0,23.0,40,0.00,,,0.00,0.000000,,2013-04-04 04:01:00,
2013-04-03 23:34:00,34.0,12.0,-100.00,SW,231,12.0,23.0,40,0.00,,,0.00,0.000000,,2013-04-04 04:34:00,
2013-04-03 23:43:00,34.0,12.0,-100.00,SW,231,12.0,23.0,40,0.00,,,0.00,0.000000,,2013-04-04 04:43:00,
2013-04-03 23:53:00,34.0,12.0,-100.00,SW,231,12.0,23.0,40,0.00,,,0.00,0.000000,,2013-04-04 04:53:00,